Time;durP1;ratioP1;P1;durP2;ratioP2;P2;SDS_P1;SDS_P2;PMS_P1;PMS_P2;Temp;Humidity;BMP_temperature;BMP_pressure;BME280_temperature;BME280_humidity;BME280_pressure;Samples;Min_cycle;Max_cycle;Signal;HPM_P1;HPM_P2
2024/04/01 00:01:01;;;;;;;4.00;3.20;;;;;;;4.10;72.79;99743.47;5002597;28;20445;-78
2024/04/01 00:03:28;;;;;;;6.60;3.43;;;;;;;4.08;72.92;99746.06;5003888;28;20528;-77
2024/04/01 00:05:55;;;;;;;4.90;3.40;;;;;;;4.03;72.97;99732.31;5004575;28;20442;-77
2024/04/01 00:08:22;;;;;;;4.43;3.47;;;;;;;4.06;73.03;99737.44;5001027;28;20795;-77
2024/04/01 00:10:48;;;;;;;6.50;3.97;;;;;;;4.07;73.04;99728.81;5004418;28;20439;-77
2024/04/01 00:13:17;;;;;;;4.60;3.47;;;;;;;4.06;72.66;99721.91;5003117;28;20482;-77
2024/04/01 00:15:43;;;;;;;5.10;3.37;;;;;;;4.06;72.92;99734.00;5002437;28;20448;-77
2024/04/01 00:18:11;;;;;;;7.07;4.00;;;;;;;4.05;73.18;99740.91;5001948;28;20924;-77
2024/04/01 00:20:37;;;;;;;5.30;3.50;;;;;;;4.05;73.06;99745.25;5000522;28;20441;-75
2024/04/01 00:23:04;;;;;;;5.63;4.10;;;;;;;4.01;72.92;99728.91;5004087;28;20490;-76
2024/04/01 00:25:30;;;;;;;7.80;3.30;;;;;;;4.03;72.88;99732.31;5000445;28;20215;-76
2024/04/01 00:27:57;;;;;;;5.80;3.37;;;;;;;4.02;73.07;99740.97;5003441;28;20510;-76
2024/04/01 00:30:24;;;;;;;3.73;3.10;;;;;;;4.02;73.28;99734.94;5001300;28;20476;-75
2024/04/01 00:32:51;;;;;;;4.87;3.57;;;;;;;4.02;72.82;99734.94;5002229;28;20449;-75
2024/04/01 00:35:17;;;;;;;5.40;3.57;;;;;;;4.01;73.16;99728.91;5002210;28;20463;-76
2024/04/01 00:37:44;;;;;;;4.63;3.00;;;;;;;4.00;73.08;99731.50;5001466;28;20462;-76
2024/04/01 00:40:10;;;;;;;5.20;3.27;;;;;;;3.98;73.19;99723.78;5003198;28;20207;-75
2024/04/01 00:42:38;;;;;;;6.23;3.37;;;;;;;3.99;73.28;99728.06;4999961;28;20495;-76
2024/04/01 00:45:05;;;;;;;7.37;3.67;;;;;;;3.98;73.20;99728.94;5003690;28;20873;-75
2024/04/01 00:47:33;;;;;;;4.27;3.23;;;;;;;3.96;73.13;99728.94;5000942;28;20465;-75
2024/04/01 00:49:59;;;;;;;4.43;3.37;;;;;;;3.96;73.05;99721.19;5002600;28;20440;-75
2024/04/01 00:52:28;;;;;;;5.43;3.40;;;;;;;3.95;73.21;99721.19;5001633;28;20456;-76
2024/04/01 00:54:56;;;;;;;4.47;3.43;;;;;;;3.94;73.27;99709.97;5001283;28;20201;-74
2024/04/01 00:57:23;;;;;;;4.37;3.60;;;;;;;3.94;73.18;99709.13;5002718;28;20502;-77
2024/04/01 00:59:51;;;;;;;5.47;3.40;;;;;;;3.93;73.32;99707.44;5003764;28;20436;-76
2024/04/01 01:02:19;;;;;;;4.63;3.77;;;;;;;3.93;73.41;99715.19;5000793;28;20848;-76
2024/04/01 01:04:47;;;;;;;3.67;3.00;;;;;;;3.93;73.19;99728.13;5002674;28;20553;-76
2024/04/01 01:07:14;;;;;;;6.57;3.20;;;;;;;3.89;73.42;99718.69;5002376;28;20449;-76
2024/04/01 01:09:41;;;;;;;4.67;3.20;;;;;;;3.91;73.39;99735.06;5001970;28;20453;-77
2024/04/01 01:12:08;;;;;;;4.10;3.23;;;;;;;3.88;73.23;99740.28;5003003;28;20458;-77
2024/04/01 01:14:34;;;;;;;4.40;3.07;;;;;;;3.90;73.22;99741.13;5001393;28;20520;-75
2024/04/01 01:17:01;;;;;;;4.70;3.60;;;;;;;3.88;73.41;99748.88;5004538;28;20903;-74
2024/04/01 01:19:27;;;;;;;6.50;3.73;;;;;;;3.87;73.32;99757.53;5000016;28;20578;-76
2024/04/01 01:22:04;;;;;;;4.90;3.43;;;;;;;3.86;73.35;99752.34;5002613;28;20886;-74
2024/04/01 01:24:32;;;;;;;5.17;3.17;;;;;;;3.84;73.20;99746.34;5002516;28;20444;-75
2024/04/01 01:26:59;;;;;;;5.63;3.43;;;;;;;3.83;73.59;99734.28;5001370;28;20443;-74
2024/04/01 01:29:29;;;;;;;6.03;3.93;;;;;;;3.83;73.53;99745.47;5003420;28;20447;-76
2024/04/01 01:31:58;;;;;;;4.73;3.43;;;;;;;3.83;73.70;99754.97;5001210;28;20467;-78
2024/04/01 01:34:24;;;;;;;6.47;3.57;;;;;;;3.81;73.57;99754.13;5002503;28;20455;-78
2024/04/01 01:36:52;;;;;;;5.40;3.37;;;;;;;3.79;73.52;99754.16;5001685;28;20464;-78
2024/04/01 01:39:18;;;;;;;5.10;3.70;;;;;;;3.76;73.56;99749.03;5000018;28;20458;-78
2024/04/01 01:41:46;;;;;;;5.80;4.17;;;;;;;3.79;73.56;99745.56;5000669;28;20451;-81
2024/04/01 01:44:12;;;;;;;4.10;3.50;;;;;;;3.78;73.38;99734.34;5004369;28;20708;-79
2024/04/01 01:46:39;;;;;;;4.77;4.13;;;;;;;3.78;73.79;99736.94;5000614;28;20440;-80
2024/04/01 01:49:05;;;;;;;7.10;4.80;;;;;;;3.77;73.75;99742.97;5004362;28;20215;-80
2024/04/01 01:51:32;;;;;;;5.30;4.00;;;;;;;3.78;74.05;99738.66;5001581;28;20447;-80
2024/04/01 01:53:58;;;;;;;5.57;3.30;;;;;;;3.77;73.95;99748.16;5000770;28;20568;-80
2024/04/01 01:56:25;;;;;;;6.87;4.23;;;;;;;3.80;73.92;99755.03;5005725;28;20488;-80
2024/04/01 01:58:52;;;;;;;5.87;3.93;;;;;;;3.79;74.02;99749.00;5007893;28;20303;-80
2024/04/01 02:01:19;;;;;;;5.27;4.23;;;;;;;3.79;74.17;99746.41;5007957;28;20458;-80
2024/04/01 02:03:45;;;;;;;8.03;4.33;;;;;;;3.81;74.26;99736.91;5004336;28;20492;-80
2024/04/01 02:06:12;;;;;;;8.03;4.87;;;;;;;3.80;74.16;99737.75;5004518;28;20819;-79
2024/04/01 02:08:37;;;;;;;5.63;4.10;;;;;;;3.78;74.55;99725.72;5007705;28;20207;-80
2024/04/01 02:11:05;;;;;;;6.23;4.37;;;;;;;3.80;74.11;99739.50;5004285;28;20451;-80
2024/04/01 02:13:30;;;;;;;5.97;3.90;;;;;;;3.82;74.41;99746.38;5004394;28;20212;-79
2024/04/01 02:16:07;;;;;;;8.97;4.63;;;;;;;3.84;74.42;99742.03;5005950;28;20460;-80
2024/04/01 02:18:33;;;;;;;5.67;4.17;;;;;;;3.80;74.51;99735.19;5004463;28;20204;-80
2024/04/01 02:21:00;;;;;;;5.73;4.17;;;;;;;3.86;74.32;99742.84;5007917;28;20469;-80
2024/04/01 02:23:31;;;;;;;7.60;4.73;;;;;;;3.85;74.68;99742.91;5004023;28;21019;-80
2024/04/01 02:26:00;;;;;;;6.83;4.70;;;;;;;3.89;74.58;99747.16;5006041;28;20455;-80
2024/04/01 02:28:26;;;;;;;6.63;4.40;;;;;;;3.90;74.68;99749.72;5005350;28;20440;-79
2024/04/01 02:30:53;;;;;;;8.10;4.50;;;;;;;3.90;74.72;99743.72;5007020;28;20956;-79
2024/04/01 02:33:20;;;;;;;8.27;5.07;;;;;;;3.91;74.97;99745.41;5003984;28;20447;-79
2024/04/01 02:35:47;;;;;;;7.07;4.83;;;;;;;3.84;74.95;99734.28;5007563;28;20459;-80
2024/04/01 02:38:13;;;;;;;9.30;4.47;;;;;;;3.92;75.10;99741.94;5007073;28;20435;-79
2024/04/01 02:40:42;;;;;;;6.87;4.80;;;;;;;3.94;74.91;99745.38;5003681;28;20833;-80
2024/04/01 02:43:08;;;;;;;8.53;5.50;;;;;;;3.96;74.89;99741.03;5005493;28;20221;-81
2024/04/01 02:45:35;;;;;;;9.03;4.43;;;;;;;3.97;75.03;99750.50;5005406;28;20697;-79
2024/04/01 02:48:01;;;;;;;6.70;4.73;;;;;;;3.96;74.96;99747.06;5003666;28;20212;-80
2024/04/01 02:50:29;;;;;;;8.10;5.30;;;;;;;4.00;74.99;99741.84;5008158;28;20474;-79
2024/04/01 02:52:55;;;;;;;6.90;4.77;;;;;;;4.00;74.97;99747.88;5007021;28;20200;-77
2024/04/01 02:55:22;;;;;;;8.43;5.07;;;;;;;4.02;75.19;99740.09;5002566;28;20470;-77
2024/04/01 02:57:48;;;;;;;7.03;4.30;;;;;;;4.04;75.19;99727.97;5006169;28;20286;-77
2024/04/01 03:00:17;;;;;;;6.43;4.60;;;;;;;4.03;74.89;99734.88;5004029;28;20453;-74
2024/04/01 03:02:44;;;;;;;8.67;5.33;;;;;;;4.04;75.03;99744.38;5004221;28;20238;-76
2024/04/01 03:05:11;;;;;;;10.27;5.60;;;;;;;4.03;75.49;99740.06;5005017;28;20881;-75
2024/04/01 03:07:38;;;;;;;7.63;5.37;;;;;;;4.06;75.25;99740.03;5003357;28;20467;-75
2024/04/01 03:10:06;;;;;;;7.90;5.17;;;;;;;4.07;75.28;99741.75;5005190;28;20451;-75
2024/04/01 03:12:32;;;;;;;10.60;5.67;;;;;;;4.08;75.30;99740.03;5005596;28;20443;-77
2024/04/01 03:14:58;;;;;;;7.40;4.83;;;;;;;4.09;75.07;99733.97;5002266;28;20458;-76
2024/04/01 03:17:29;;;;;;;9.20;5.73;;;;;;;4.10;75.31;99733.97;5003970;28;20206;-76
2024/04/01 03:19:56;;;;;;;8.10;4.67;;;;;;;4.12;75.17;99736.50;5003330;28;20495;-76
2024/04/01 03:22:22;;;;;;;9.80;6.00;;;;;;;4.12;75.71;99739.97;5004420;28;20439;-76
2024/04/01 03:24:51;;;;;;;8.77;5.63;;;;;;;4.14;75.56;99739.94;5001805;28;20491;-75
2024/04/01 03:27:17;;;;;;;8.50;5.20;;;;;;;4.14;75.63;99743.38;5001662;28;20215;-75
2024/04/01 03:29:43;;;;;;;9.80;5.60;;;;;;;4.14;75.50;99742.53;5004793;28;20464;-74
2024/04/01 03:32:09;;;;;;;6.93;5.00;;;;;;;4.17;75.44;99745.06;5002249;28;20203;-75
2024/04/01 03:34:36;;;;;;;7.73;4.57;;;;;;;4.18;75.47;99744.22;5004034;28;20463;-77
2024/04/01 03:37:02;;;;;;;9.90;5.90;;;;;;;4.18;75.50;99747.66;5003565;28;20208;-77
2024/04/01 03:39:30;;;;;;;8.10;5.20;;;;;;;4.20;75.41;99750.22;5003035;28;20972;-77
2024/04/01 03:41:59;;;;;;;9.10;6.17;;;;;;;4.21;75.52;99745.88;5004781;28;20447;-77
2024/04/01 03:44:25;;;;;;;10.37;5.40;;;;;;;4.22;75.71;99739.84;5002565;28;20832;-75
2024/04/01 03:46:52;;;;;;;7.97;5.47;;;;;;;4.22;75.56;99743.28;5005432;28;20448;-77
2024/04/01 03:49:18;;;;;;;8.77;5.53;;;;;;;4.24;75.43;99736.38;5002717;28;20482;-76
2024/04/01 03:51:45;;;;;;;7.40;5.47;;;;;;;4.23;75.68;99732.03;5005570;28;20937;-76
2024/04/01 03:54:11;;;;;;;8.57;5.13;;;;;;;4.26;75.60;99738.91;5003527;28;20224;-76
2024/04/01 03:56:38;;;;;;;8.30;5.00;;;;;;;4.27;75.31;99741.50;5004150;28;20475;-78
2024/04/01 03:59:05;;;;;;;6.87;5.20;;;;;;;4.27;75.78;99738.91;5004280;28;20685;-78
2024/04/01 04:01:32;;;;;;;8.20;4.37;;;;;;;4.28;75.58;99738.03;5003346;28;20538;-76
2024/04/01 04:03:58;;;;;;;5.70;4.80;;;;;;;4.26;75.58;99734.59;5005147;28;20483;-77
2024/04/01 04:06:24;;;;;;;6.80;4.83;;;;;;;4.30;75.36;99745.78;5002255;28;20918;-76
2024/04/01 04:08:50;;;;;;;7.73;4.73;;;;;;;4.29;75.43;99749.22;5005744;28;20203;-78
2024/04/01 04:11:17;;;;;;;7.03;4.20;;;;;;;4.29;75.68;99746.66;5001326;28;20201;-77
2024/04/01 04:13:43;;;;;;;5.27;4.60;;;;;;;4.29;75.59;99754.41;5003202;28;20692;-76
2024/04/01 04:16:12;;;;;;;6.73;4.80;;;;;;;4.30;75.66;99750.97;5002583;28;20448;-77
2024/04/01 04:18:37;;;;;;;5.90;4.63;;;;;;;4.29;75.51;99742.31;5001973;28;20931;-76
2024/04/01 04:21:10;;;;;;;8.50;5.47;;;;;;;4.29;75.66;99744.06;5003764;28;20459;-76
2024/04/01 04:23:36;;;;;;;6.07;4.40;;;;;;;4.29;75.58;99737.13;5000737;28;20697;-77
2024/04/01 04:26:03;;;;;;;7.30;4.63;;;;;;;4.29;75.54;99734.53;5004971;28;20457;-76
2024/04/01 04:28:29;;;;;;;7.30;4.33;;;;;;;4.30;75.47;99735.44;5002072;28;20291;-75
2024/04/01 04:30:56;;;;;;;6.83;4.90;;;;;;;4.30;75.55;99735.44;5002801;28;20791;-76
2024/04/01 04:33:23;;;;;;;5.43;4.47;;;;;;;4.30;75.42;99738.88;5001233;28;20212;-76
2024/04/01 04:35:50;;;;;;;7.37;4.53;;;;;;;4.31;75.35;99747.50;5002643;28;20541;-76
2024/04/01 04:38:18;;;;;;;6.60;4.53;;;;;;;4.32;75.52;99754.38;5001540;28;20481;-75
2024/04/01 04:40:44;;;;;;;6.73;4.70;;;;;;;4.31;75.31;99750.94;5003913;28;20458;-77
2024/04/01 04:43:10;;;;;;;6.23;4.03;;;;;;;4.32;75.35;99755.25;5000209;28;20495;-76
2024/04/01 04:45:47;;;;;;;7.53;4.63;;;;;;;4.34;75.48;99757.81;5003609;28;20447;-75
2024/04/01 04:48:14;;;;;;;7.43;4.50;;;;;;;4.33;75.53;99750.91;5002890;28;20218;-75
2024/04/01 04:50:42;;;;;;;7.17;4.77;;;;;;;4.33;75.35;99751.78;5001042;28;20960;-74
2024/04/01 04:53:08;;;;;;;7.07;4.33;;;;;;;4.34;75.38;99757.81;5003420;28;20444;-75
2024/04/01 04:55:35;;;;;;;6.93;4.63;;;;;;;4.33;75.30;99750.91;5000667;28;20208;-76
2024/04/01 04:58:00;;;;;;;6.37;4.33;;;;;;;4.35;75.56;99772.44;5004099;28;20693;-77
2024/04/01 05:00:27;;;;;;;6.47;4.07;;;;;;;4.33;75.42;99763.88;5001594;28;20451;-75
2024/04/01 05:02:53;;;;;;;8.03;4.93;;;;;;;4.32;75.30;99763.03;5002968;28;20684;-78
2024/04/01 05:05:20;;;;;;;8.47;4.77;;;;;;;4.32;75.30;99760.44;5002911;28;20444;-78
2024/04/01 05:07:49;;;;;;;6.13;4.70;;;;;;;4.34;75.35;99760.38;5002634;28;20207;-78
2024/04/01 05:10:16;;;;;;;6.53;4.20;;;;;;;4.33;75.54;99756.09;5004126;28;20534;-78
2024/04/01 05:12:42;;;;;;;6.20;4.13;;;;;;;4.34;75.35;99763.84;5001407;28;20455;-78
2024/04/01 05:15:10;;;;;;;6.97;4.83;;;;;;;4.34;75.33;99752.63;5004673;28;20508;-77
2024/04/01 05:17:36;;;;;;;8.70;4.33;;;;;;;4.35;75.30;99746.56;5001457;28;20441;-77
2024/04/01 05:20:05;;;;;;;7.17;4.53;;;;;;;4.34;75.22;99744.84;5003693;28;20295;-75
2024/04/01 05:22:31;;;;;;;6.63;4.30;;;;;;;4.35;75.31;99739.66;5004751;28;20450;-77
2024/04/01 05:24:59;;;;;;;6.87;4.27;;;;;;;4.36;75.13;99738.78;5002971;28;20582;-78
2024/04/01 05:27:25;;;;;;;6.30;4.60;;;;;;;4.37;75.43;99747.41;5001822;28;20445;-78
2024/04/01 05:30:02;;;;;;;6.70;4.37;;;;;;;4.32;75.54;99742.31;5007314;28;20831;-78
2024/04/01 05:32:29;;;;;;;5.73;4.27;;;;;;;4.39;75.24;99758.59;5006114;28;20204;-77
2024/04/01 05:34:56;;;;;;;6.97;4.43;;;;;;;4.37;75.21;99763.78;5006986;28;20978;-78
2024/04/01 05:37:22;;;;;;;7.30;4.50;;;;;;;4.38;75.14;99762.09;5006995;28;20443;-78
2024/04/01 05:39:49;;;;;;;5.80;3.90;;;;;;;4.36;74.93;99761.25;5005944;28;20828;-78
2024/04/01 05:42:17;;;;;;;8.87;4.83;;;;;;;4.39;75.26;99772.41;5008191;28;20204;-78
2024/04/01 05:44:44;;;;;;;7.30;4.57;;;;;;;4.39;75.08;99775.00;5004386;28;20486;-78
2024/04/01 05:47:10;;;;;;;8.20;4.53;;;;;;;4.40;75.19;99778.44;5005030;28;20447;-77
2024/04/01 05:49:37;;;;;;;8.37;4.60;;;;;;;4.40;75.13;99783.63;5007831;28;20443;-78
2024/04/01 05:52:03;;;;;;;8.80;5.03;;;;;;;4.40;75.25;99779.28;5005980;28;20206;-78
2024/04/01 05:54:31;;;;;;;7.10;4.43;;;;;;;4.40;75.16;99789.63;5004530;28;20452;-78
2024/04/01 05:56:57;;;;;;;9.37;4.83;;;;;;;4.39;75.30;99779.31;5005828;28;20490;-78
2024/04/01 05:59:26;;;;;;;9.83;5.70;;;;;;;4.42;75.35;99789.63;5008236;28;20452;-79
2024/04/01 06:01:52;;;;;;;8.07;4.77;;;;;;;4.43;75.15;99790.50;5007935;28;20454;-79
2024/04/01 06:04:20;;;;;;;6.93;4.13;;;;;;;4.42;75.07;99797.41;5007828;28;20591;-77
2024/04/01 06:06:46;;;;;;;9.83;4.87;;;;;;;4.44;75.26;99802.59;5004462;28;20945;-76
2024/04/01 06:09:13;;;;;;;10.50;4.97;;;;;;;4.45;74.92;99799.09;5006846;28;20458;-78
2024/04/01 06:11:39;;;;;;;8.80;5.23;;;;;;;4.44;75.19;99800.84;5005732;28;20215;-78
2024/04/01 06:14:06;;;;;;;8.17;4.80;;;;;;;4.45;75.39;99797.38;5007673;28;20828;-78
2024/04/01 06:16:34;;;;;;;10.20;5.53;;;;;;;4.47;75.50;99799.94;5004830;28;20236;-77
2024/04/01 06:19:00;;;;;;;9.97;5.13;;;;;;;4.48;75.33;99802.50;5006474;28;20448;-76
2024/04/01 06:21:26;;;;;;;9.47;5.30;;;;;;;4.49;75.38;99808.53;5003580;28;20454;-78
2024/04/01 06:23:53;;;;;;;9.77;4.83;;;;;;;4.50;75.52;99812.84;5003848;28;20229;-77
2024/04/01 06:26:19;;;;;;;10.73;5.17;;;;;;;4.52;75.33;99811.09;5006785;28;20226;-76
2024/04/01 06:28:48;;;;;;;10.60;5.50;;;;;;;4.53;75.52;99800.72;5004141;28;20452;-76
2024/04/01 06:31:14;;;;;;;10.97;5.70;;;;;;;4.54;75.51;99791.19;5003298;28;20237;-77
2024/04/01 06:33:42;;;;;;;10.63;5.50;;;;;;;4.55;75.52;99796.38;5004089;28;20924;-77
2024/04/01 06:36:09;;;;;;;8.60;5.00;;;;;;;4.57;75.47;99796.34;5005290;28;20223;-77
2024/04/01 06:38:37;;;;;;;11.30;5.97;;;;;;;4.58;75.71;99798.06;5003455;28;20452;-77
2024/04/01 06:41:03;;;;;;;8.07;5.03;;;;;;;4.59;75.48;99794.59;5002070;28;20458;-77
2024/04/01 06:43:30;;;;;;;10.87;6.00;;;;;;;4.60;75.49;99811.84;5004129;28;20519;-76
2024/04/01 06:45:57;;;;;;;7.27;4.43;;;;;;;4.61;75.29;99822.19;5005158;28;20953;-78
2024/04/01 06:48:25;;;;;;;9.57;5.40;;;;;;;4.62;75.27;99823.03;5004157;28;20452;-80
2024/04/01 06:50:52;;;;;;;9.37;5.03;;;;;;;4.63;75.62;99830.81;5004900;28;20460;-79
2024/04/01 06:53:21;;;;;;;9.33;5.17;;;;;;;4.64;75.50;99840.28;5006000;28;20455;-78
2024/04/01 06:55:47;;;;;;;9.50;5.33;;;;;;;4.65;75.31;99841.13;5002384;28;20447;-77
2024/04/01 06:58:15;;;;;;;9.13;5.53;;;;;;;4.67;75.60;99833.34;5006008;28;20533;-77
2024/04/01 07:00:41;;;;;;;10.07;5.90;;;;;;;4.67;75.80;99831.63;5002951;28;20207;-77
2024/04/01 07:03:08;;;;;;;9.57;5.13;;;;;;;4.66;75.68;99827.28;5006372;28;20204;-79
2024/04/01 07:05:35;;;;;;;10.47;5.50;;;;;;;4.71;75.54;99837.59;5003791;28;20492;-76
2024/04/01 07:08:03;;;;;;;9.73;5.33;;;;;;;4.73;75.60;99843.63;5004117;28;20201;-78
2024/04/01 07:10:30;;;;;;;10.57;5.13;;;;;;;4.77;75.74;99842.69;5005369;28;20451;-79
2024/04/01 07:12:56;;;;;;;9.40;5.70;;;;;;;4.77;75.71;99851.31;5002641;28;20950;-79
2024/04/01 07:15:23;;;;;;;10.27;5.30;;;;;;;4.79;75.92;99853.91;5006481;28;20209;-77
2024/04/01 07:17:49;;;;;;;7.27;5.17;;;;;;;4.79;75.22;99862.53;5006042;28;20205;-78
2024/04/01 07:20:16;;;;;;;7.50;4.47;;;;;;;4.80;75.47;99866.81;5003744;28;20235;-78
2024/04/01 07:22:42;;;;;;;9.13;4.60;;;;;;;4.81;75.29;99870.31;5007976;28;20594;-82
2024/04/01 07:25:11;;;;;;;8.47;4.83;;;;;;;4.81;75.53;99878.09;5006233;28;20306;-82
2024/04/01 07:27:37;;;;;;;8.63;4.10;;;;;;;4.81;75.54;99880.66;5006870;28;20467;-82
2024/04/01 07:30:04;;;;;;;5.87;3.73;;;;;;;4.83;75.50;99887.56;5005026;28;20521;-82
2024/04/01 07:32:31;;;;;;;6.83;4.40;;;;;;;4.84;75.37;99883.22;5006553;28;20204;-76
2024/04/01 07:34:58;;;;;;;6.83;4.37;;;;;;;4.85;75.22;99890.97;5002846;28;20577;-79
2024/04/01 07:37:24;;;;;;;9.47;4.87;;;;;;;4.89;75.35;99902.16;5005791;28;20236;-78
2024/04/01 07:39:51;;;;;;;7.43;4.60;;;;;;;4.90;75.53;99896.09;5003469;28;20877;-79
2024/04/01 07:42:18;;;;;;;9.33;4.80;;;;;;;4.90;75.22;99892.66;5004835;28;20204;-77
2024/04/01 07:44:45;;;;;;;12.57;5.33;;;;;;;4.90;75.08;99898.69;5006261;28;20326;-79
2024/04/01 07:47:11;;;;;;;9.37;4.80;;;;;;;4.96;75.41;99909.00;5004924;28;20389;-77
2024/04/01 07:49:37;;;;;;;7.90;4.60;;;;;;;4.98;75.30;99917.63;5003362;28;20292;-77
2024/04/01 07:52:04;;;;;;;7.47;4.67;;;;;;;4.98;75.05;99917.63;5004893;28;20203;-78
2024/04/01 07:54:30;;;;;;;8.90;4.80;;;;;;;5.02;75.37;99919.28;5001947;28;20206;-77
2024/04/01 07:57:02;;;;;;;8.83;5.20;;;;;;;5.05;75.27;99933.94;5005133;28;20244;-78
2024/04/01 07:59:29;;;;;;;7.20;4.00;;;;;;;5.07;75.04;99942.56;5001713;28;20732;-77
2024/04/01 08:01:56;;;;;;;8.93;4.50;;;;;;;5.09;75.12;99951.19;5003850;28;20233;-78
2024/04/01 08:04:23;;;;;;;5.67;3.90;;;;;;;5.10;74.82;99952.88;5001538;28;21062;-78
2024/04/01 08:06:50;;;;;;;4.30;2.57;;;;;;;5.12;75.24;99942.47;5004947;28;20204;-78
2024/04/01 08:09:16;;;;;;;7.30;4.27;;;;;;;5.13;74.93;99945.06;5001931;28;20197;-78
2024/04/01 08:11:43;;;;;;;8.00;4.43;;;;;;;5.15;75.06;99947.63;5005287;28;20208;-77
2024/04/01 08:14:09;;;;;;;7.93;4.13;;;;;;;5.16;74.80;99947.63;5002425;28;20725;-77
2024/04/01 08:16:37;;;;;;;7.23;4.03;;;;;;;5.19;75.11;99954.50;5004653;28;20446;-77
2024/04/01 08:19:03;;;;;;;6.33;4.13;;;;;;;5.18;74.97;99963.16;5002198;28;20220;-78
2024/04/01 08:21:30;;;;;;;6.17;4.00;;;;;;;5.22;74.87;99967.41;4999490;28;20232;-78
2024/04/01 08:23:55;;;;;;;5.47;3.40;;;;;;;5.22;74.72;99965.69;5002535;28;20695;-77
2024/04/01 08:26:22;;;;;;;4.80;3.17;;;;;;;5.23;74.68;99963.94;5002256;28;20212;-78
2024/04/01 08:28:51;;;;;;;6.80;3.67;;;;;;;5.21;74.60;99956.19;5003528;28;20200;-78
2024/04/01 08:31:18;;;;;;;6.37;3.90;;;;;;;5.28;74.75;99973.38;5000379;28;20199;-78
2024/04/01 08:33:45;;;;;;;7.20;3.60;;;;;;;5.31;74.87;99975.06;5001312;28;20667;-78
2024/04/01 08:36:12;;;;;;;5.73;3.60;;;;;;;5.31;74.72;99968.13;5003657;28;20559;-78
2024/04/01 08:38:38;;;;;;;7.03;3.93;;;;;;;5.34;74.74;99969.84;5001907;28;20206;-75
2024/04/01 08:41:12;;;;;;;7.00;4.23;;;;;;;5.37;74.87;99976.72;5001987;28;20236;-77
2024/04/01 08:43:41;;;;;;;8.37;4.80;;;;;;;5.38;74.91;99979.31;5003839;28;20211;-77
2024/04/01 08:46:08;;;;;;;6.60;4.00;;;;;;;5.42;74.55;99988.75;5000709;28;20689;-79
2024/04/01 08:48:35;;;;;;;6.73;4.20;;;;;;;5.43;74.45;99982.69;5003108;28;20201;-78
2024/04/01 08:51:06;;;;;;;7.17;3.93;;;;;;;5.45;74.67;99973.13;5000587;28;20207;-77
2024/04/01 08:53:43;;;;;;;5.10;3.63;;;;;;;5.48;74.58;99969.63;5002948;28;20670;-78
2024/04/01 08:56:11;;;;;;;6.43;3.90;;;;;;;5.50;74.42;99973.94;4999270;28;20630;-77
2024/04/01 08:58:38;;;;;;;5.70;3.37;;;;;;;5.51;74.71;99967.84;5000954;28;20212;-77
2024/04/01 09:01:05;;;;;;;6.00;3.20;;;;;;;5.53;74.65;99975.63;4997895;28;20575;-76
2024/04/01 09:03:31;;;;;;;4.93;3.70;;;;;;;5.54;74.27;99990.31;5002960;28;20571;-77
2024/04/01 09:05:58;;;;;;;6.47;3.37;;;;;;;5.57;74.39;99998.03;5002424;28;20235;-77
2024/04/01 09:08:27;;;;;;;6.33;3.47;;;;;;;5.58;74.37;100002.38;5000099;28;20697;-77
2024/04/01 09:10:54;;;;;;;5.10;3.33;;;;;;;5.60;74.26;99994.53;4999915;28;20232;-78
2024/04/01 09:13:20;;;;;;;5.37;3.13;;;;;;;5.62;74.24;99992.78;5001315;28;20201;-78
2024/04/01 09:15:47;;;;;;;5.53;3.43;;;;;;;5.65;74.17;99998.78;5000701;28;20221;-77
2024/04/01 09:18:14;;;;;;;6.07;3.13;;;;;;;5.66;73.88;100000.53;5001679;28;20223;-78
2024/04/01 09:20:41;;;;;;;6.47;3.67;;;;;;;5.67;74.07;99993.59;5001589;28;20613;-77
2024/04/01 09:23:07;;;;;;;5.53;3.80;;;;;;;5.72;74.12;100005.63;5000996;28;20205;-78
2024/04/01 09:25:35;;;;;;;4.80;3.50;;;;;;;5.74;74.18;100009.06;5002465;28;20256;-78
2024/04/01 09:28:01;;;;;;;6.70;3.83;;;;;;;5.76;74.00;100017.66;4999472;28;20205;-78
2024/04/01 09:30:28;;;;;;;5.30;3.50;;;;;;;5.79;73.86;100027.13;4995811;28;20572;-78
2024/04/01 09:32:56;;;;;;;5.27;3.20;;;;;;;5.81;74.20;100035.78;5002965;28;20633;-78
2024/04/01 09:35:23;;;;;;;5.17;3.60;;;;;;;5.83;73.93;100044.41;5000879;28;20209;-77
2024/04/01 09:37:49;;;;;;;6.43;3.37;;;;;;;5.86;73.89;100053.84;5001369;28;20263;-78
2024/04/01 09:40:17;;;;;;;4.47;3.20;;;;;;;5.88;73.89;100047.75;5002015;28;20201;-78
2024/04/01 09:42:45;;;;;;;4.73;3.00;;;;;;;5.90;74.06;100061.59;5001222;28;20213;-80
2024/04/01 09:45:12;;;;;;;4.20;3.00;;;;;;;5.92;74.11;100069.38;5000359;28;20260;-80
2024/04/01 09:47:39;;;;;;;4.10;2.47;;;;;;;5.93;74.15;100068.47;5004048;28;20209;-80
2024/04/01 09:50:06;;;;;;;3.53;2.50;;;;;;;5.95;73.84;100080.56;5001241;28;20300;-80
2024/04/01 09:52:33;;;;;;;3.53;2.30;;;;;;;5.97;73.96;100084.00;5000951;28;20212;-84
2024/04/01 09:55:06;;;;;;;3.93;2.50;;;;;;;6.01;73.65;100078.75;5003168;28;20672;-84
2024/04/01 09:58:07;;;;;;;3.97;2.60;;;;;;;6.04;73.77;100074.38;5000627;28;20237;-84
2024/04/01 10:00:45;;;;;;;2.93;2.40;;;;;;;6.08;73.36;100075.16;5000837;28;20386;-84
2024/04/01 10:04:01;;;;;;;3.13;2.20;;;;;;;6.12;73.72;100082.06;5003950;28;20217;-84
2024/04/01 10:07:00;;;;;;;3.07;2.47;;;;;;;6.13;73.43;100079.41;5003032;28;20202;-85
2024/04/01 10:10:17;;;;;;;3.17;2.57;;;;;;;6.17;73.32;100090.59;4979937;28;20211;-85
2024/04/01 10:13:20;;;;;;;3.33;2.40;;;;;;;6.20;73.44;100095.78;5004674;28;20204;-84
2024/04/01 10:16:10;;;;;;;3.97;2.50;;;;;;;6.22;73.21;100099.19;5005973;28;20670;-83
2024/04/01 10:19:02;;;;;;;2.93;2.40;;;;;;;6.26;73.26;100097.41;5004537;28;20216;-84
2024/04/01 10:22:01;;;;;;;5.83;2.73;;;;;;;6.28;73.51;100090.44;5005552;28;20656;-85
2024/04/01 10:25:16;;;;;;;3.80;2.60;;;;;;;6.29;73.57;100082.63;5001616;28;20233;-84
2024/04/01 10:28:13;;;;;;;5.43;2.70;;;;;;;6.32;73.35;100085.19;5008113;28;20209;-83
2024/04/01 10:31:13;;;;;;;4.60;2.40;;;;;;;6.36;73.50;100081.63;5004606;28;20602;-84
2024/04/01 10:34:13;;;;;;;3.43;2.73;;;;;;;6.39;73.30;100088.53;5006675;28;20204;-84
2024/04/01 10:37:01;;;;;;;5.47;2.70;;;;;;;6.40;72.79;100096.31;5007014;28;20197;-84
2024/04/01 10:40:02;;;;;;;4.60;2.90;;;;;;;6.41;72.86;100095.41;5006664;28;20554;-85
2024/04/01 10:43:23;;;;;;;5.17;2.30;;;;;;;6.47;72.91;100093.63;5003852;28;20211;-85
2024/04/01 10:46:26;;;;;;;5.57;2.30;;;;;;;6.48;72.81;100097.91;5001686;28;20225;-83
2024/04/01 10:49:20;;;;;;;4.07;1.90;;;;;;;6.49;72.15;100087.50;5005216;28;20232;-84
2024/04/01 10:52:36;;;;;;;3.97;1.97;;;;;;;6.56;72.67;100093.44;5003084;28;20201;-74
2024/04/01 10:55:27;;;;;;;2.13;1.53;;;;;;;6.57;72.32;100090.84;5003118;28;20209;-75
2024/04/01 10:58:20;;;;;;;2.00;1.80;;;;;;;6.58;72.71;100083.88;5002911;28;20270;-74
2024/04/01 11:01:17;;;;;;;2.63;1.73;;;;;;;6.63;72.32;100106.31;5003347;28;20214;-81
2024/04/01 11:04:11;;;;;;;1.60;1.50;;;;;;;6.65;72.09;100099.34;5003884;28;20205;-78
2024/04/01 11:07:00;;;;;;;2.17;1.57;;;;;;;6.68;72.03;100105.38;4971077;28;20208;-76
2024/04/01 11:09:44;;;;;;;1.73;1.30;;;;;;;6.72;72.28;100110.50;5003608;28;20869;-78
2024/04/01 11:12:22;;;;;;;2.10;1.67;;;;;;;6.73;71.92;100108.75;5002540;28;20690;-76
2024/04/01 11:14:52;;;;;;;2.77;1.87;;;;;;;6.77;71.70;100113.00;5002713;28;20297;-79
2024/04/01 11:17:19;;;;;;;3.77;1.80;;;;;;;6.76;71.77;100114.75;5005427;28;20201;-76
2024/04/01 11:20:12;;;;;;;2.03;1.70;;;;;;;6.81;71.57;100110.34;5005332;28;20208;-79
2024/04/01 11:22:57;;;;;;;4.77;1.90;;;;;;;6.85;71.68;100105.94;5005290;28;20682;-79
2024/04/01 11:25:32;;;;;;;3.27;1.90;;;;;;;6.87;71.43;100106.75;5004800;28;20228;-79
2024/04/01 11:28:39;;;;;;;2.90;1.80;;;;;;;6.91;71.74;100107.56;5002590;28;20289;-79
2024/04/01 11:31:11;;;;;;;2.77;1.90;;;;;;;6.93;71.74;100108.41;4953442;29;20211;-79
2024/04/01 11:33:50;;;;;;;1.70;1.50;;;;;;;6.95;71.60;100096.25;4993946;28;20710;-78
2024/04/01 11:36:24;;;;;;;2.30;1.90;;;;;;;6.96;71.08;100098.78;5005263;28;20201;-79
2024/04/01 11:39:04;;;;;;;2.73;1.83;;;;;;;6.98;71.08;100096.19;5001860;28;20210;-79
2024/04/01 11:41:33;;;;;;;2.63;1.70;;;;;;;7.00;70.78;100094.41;5003597;28;20202;-77
2024/04/01 11:44:00;;;;;;;3.40;1.97;;;;;;;7.01;70.75;100096.97;5001661;28;20237;-79
2024/04/01 11:46:27;;;;;;;2.97;1.80;;;;;;;7.04;70.76;100102.09;5005914;28;20701;-78
2024/04/01 11:48:55;;;;;;;4.00;2.17;;;;;;;7.06;70.54;100121.16;5001734;28;20628;-79
2024/04/01 11:51:30;;;;;;;3.07;1.87;;;;;;;7.08;70.05;100108.97;5003692;28;20213;-79
2024/04/01 11:53:59;;;;;;;2.57;1.70;;;;;;;7.10;69.71;100109.78;5005070;28;20573;-79